Time;durP1;ratioP1;P1;durP2;ratioP2;P2;SDS_P1;SDS_P2;PMS_P1;PMS_P2;Temp;Humidity;BMP_temperature;BMP_pressure;BME280_temperature;BME280_humidity;BME280_pressure;Samples;Min_cycle;Max_cycle;Signal;HPM_P1;HPM_P2
2021/11/05 00:02:04;;;;;;;4.68;3.42;;;;;;;7.04;100.00;99851.91;5017296;28;20047;-57
2021/11/05 00:04:30;;;;;;;4.43;3.40;;;;;;;7.06;100.00;99854.50;5013489;28;20170;-58
2021/11/05 00:06:55;;;;;;;3.70;2.70;;;;;;;7.14;100.00;99855.56;5013744;28;20030;-55
2021/11/05 00:09:21;;;;;;;4.07;2.95;;;;;;;6.89;100.00;99874.41;5017123;28;20033;-59
2021/11/05 00:11:46;;;;;;;3.33;2.92;;;;;;;6.81;100.00;99868.25;5014560;28;20516;-57
2021/11/05 00:14:12;;;;;;;4.13;2.55;;;;;;;6.97;100.00;99878.00;5015582;28;20026;-58
2021/11/05 00:16:38;;;;;;;3.38;2.45;;;;;;;7.13;100.00;99877.59;5015651;28;20797;-58
2021/11/05 00:19:04;;;;;;;3.60;2.45;;;;;;;7.08;100.00;99889.34;5014891;28;20040;-57
2021/11/05 00:21:29;;;;;;;3.15;2.28;;;;;;;6.94;100.00;99894.91;5016475;28;20501;-56
2021/11/05 00:23:55;;;;;;;2.53;1.88;;;;;;;6.99;100.00;99890.78;5013691;28;20464;-55
2021/11/05 00:26:20;;;;;;;2.88;2.28;;;;;;;7.05;100.00;99896.91;5017151;28;20042;-57
2021/11/05 00:28:46;;;;;;;2.90;2.40;;;;;;;6.82;100.00;99909.00;5017857;28;20465;-59
2021/11/05 00:31:12;;;;;;;2.47;1.98;;;;;;;6.97;100.00;99920.41;5014158;28;20483;-57
2021/11/05 00:33:37;;;;;;;2.10;1.60;;;;;;;6.93;100.00;99910.97;5016597;28;20029;-58
2021/11/05 00:36:03;;;;;;;1.50;1.40;;;;;;;6.98;100.00;99917.03;5014810;28;20104;-58
2021/11/05 00:38:29;;;;;;;1.85;1.30;;;;;;;6.82;100.00;99925.94;5017347;28;20053;-59
2021/11/05 00:40:54;;;;;;;2.28;1.27;;;;;;;6.83;100.00;99928.53;5014470;28;20033;-58
2021/11/05 00:43:20;;;;;;;1.60;1.40;;;;;;;6.59;100.00;99927.84;5016044;28;20426;-57
2021/11/05 00:45:45;;;;;;;2.20;1.17;;;;;;;6.83;100.00;99936.16;5013598;28;20048;-58
2021/11/05 00:48:11;;;;;;;1.45;1.30;;;;;;;6.85;100.00;99946.41;5016407;28;20037;-59
2021/11/05 00:50:37;;;;;;;1.20;1.08;;;;;;;6.61;100.00;99946.56;5013192;28;20152;-58
2021/11/05 00:53:03;;;;;;;2.08;1.00;;;;;;;6.53;100.00;99950.53;5016021;28;20470;-59
2021/11/05 00:55:28;;;;;;;2.05;1.10;;;;;;;6.50;100.00;99953.84;5013919;28;20046;-58
2021/11/05 00:57:54;;;;;;;1.45;0.95;;;;;;;6.50;100.00;99955.53;5015486;28;20067;-60
2021/11/05 01:00:20;;;;;;;1.13;1.02;;;;;;;6.70;100.00;99959.56;5015380;28;20034;-57
2021/11/05 01:02:46;;;;;;;0.80;0.80;;;;;;;6.58;100.00;99965.13;5029426;28;20041;-58
2021/11/05 01:05:13;;;;;;;0.77;0.77;;;;;;;6.48;100.00;99960.59;5015805;28;20045;-59
2021/11/05 01:07:39;;;;;;;2.13;1.13;;;;;;;6.55;100.00;99965.03;5013018;28;20052;-59
2021/11/05 01:10:06;;;;;;;1.77;1.10;;;;;;;6.70;100.00;99971.38;5013101;28;20689;-60
2021/11/05 01:12:31;;;;;;;1.70;1.10;;;;;;;6.66;100.00;99982.31;5016061;28;20029;-59
2021/11/05 01:14:57;;;;;;;1.02;0.93;;;;;;;6.54;100.00;99990.41;5013985;28;20045;-57
2021/11/05 01:17:23;;;;;;;1.17;1.08;;;;;;;6.62;100.00;99994.06;5018565;28;20034;-57
2021/11/05 01:19:49;;;;;;;1.10;1.00;;;;;;;6.43;100.00;99995.19;5019132;28;20030;-57
2021/11/05 01:22:14;;;;;;;1.30;1.20;;;;;;;6.50;100.00;99999.63;5017967;28;20530;-59
2021/11/05 01:24:40;;;;;;;1.20;1.10;;;;;;;6.46;100.00;100007.97;5019166;28;20029;-58
2021/11/05 01:27:06;;;;;;;1.17;1.00;;;;;;;6.54;100.00;100009.09;5017068;28;20517;-55
2021/11/05 01:29:32;;;;;;;1.33;1.23;;;;;;;6.52;100.00;100015.81;5020348;28;20036;-56
2021/11/05 01:31:57;;;;;;;0.80;0.80;;;;;;;6.77;100.00;100022.50;5017105;28;20026;-60
2021/11/05 01:34:23;;;;;;;4.18;1.50;;;;;;;6.55;100.00;100025.19;5019707;28;20063;-59
2021/11/05 01:36:49;;;;;;;1.35;1.25;;;;;;;6.67;100.00;100029.81;5018008;28;20655;-57
2021/11/05 01:39:16;;;;;;;1.95;1.30;;;;;;;6.91;100.00;100027.13;5018553;28;20045;-54
2021/11/05 01:41:42;;;;;;;2.15;1.20;;;;;;;6.68;100.00;100037.47;5018938;28;20495;-57
2021/11/05 01:44:08;;;;;;;1.45;1.35;;;;;;;6.58;100.00;100038.88;5017407;28;20523;-58
2021/11/05 01:46:41;;;;;;;2.92;1.50;;;;;;;6.82;100.00;100043.84;5019540;28;20041;-59
2021/11/05 01:49:08;;;;;;;2.45;1.30;;;;;;;6.66;100.00;100039.13;5017320;28;20030;-59
2021/11/05 01:51:36;;;;;;;1.70;1.30;;;;;;;6.55;100.00;100043.00;5018633;28;20390;-59
2021/11/05 01:54:10;;;;;;;2.17;1.60;;;;;;;6.59;100.00;100044.84;5018272;28;20099;-56
2021/11/05 01:56:40;;;;;;;2.22;1.48;;;;;;;6.75;100.00;100048.69;5016350;28;20678;-60
2021/11/05 01:59:05;;;;;;;1.45;1.35;;;;;;;6.62;100.00;100055.97;5018930;28;20033;-54
2021/11/05 02:01:31;;;;;;;1.77;1.30;;;;;;;6.99;100.00;100063.88;5017585;28;20041;-57
2021/11/05 02:03:57;;;;;;;1.98;1.40;;;;;;;6.91;100.00;100071.25;5017848;28;20037;-56
2021/11/05 02:06:23;;;;;;;2.28;1.60;;;;;;;6.59;100.00;100072.81;5018429;28;20041;-58
2021/11/05 02:08:52;;;;;;;2.70;1.63;;;;;;;6.67;100.00;100080.69;5016533;28;20030;-58
2021/11/05 02:11:20;;;;;;;2.35;1.65;;;;;;;6.84;100.00;100080.41;5015715;28;20117;-58
2021/11/05 02:13:47;;;;;;;2.38;1.85;;;;;;;6.89;100.00;100085.63;5018723;28;20083;-59
2021/11/05 02:16:14;;;;;;;1.65;1.52;;;;;;;6.65;100.00;100095.91;5016980;28;20036;-59
2021/11/05 02:18:43;;;;;;;2.38;1.30;;;;;;;6.82;100.00;100093.88;5017857;28;20045;-56
2021/11/05 02:21:15;;;;;;;1.77;1.67;;;;;;;6.59;100.00;100106.75;5018293;28;20038;-58
2021/11/05 02:23:42;;;;;;;1.52;1.30;;;;;;;6.52;100.00;100107.38;5015616;28;20033;-56
2021/11/05 02:26:08;;;;;;;2.55;1.50;;;;;;;6.67;100.00;100113.78;5018628;28;20111;-57
2021/11/05 02:28:38;;;;;;;1.23;1.13;;;;;;;6.66;100.00;100120.53;5015565;28;20557;-56
2021/11/05 02:31:04;;;;;;;1.83;1.52;;;;;;;6.77;100.00;100118.31;5017210;28;20041;-55
2021/11/05 02:33:30;;;;;;;1.70;1.58;;;;;;;6.64;100.00;100125.56;5018033;28;20033;-56
2021/11/05 02:35:56;;;;;;;1.50;1.30;;;;;;;6.72;100.00;100127.50;5015961;28;20119;-55
2021/11/05 02:38:21;;;;;;;1.40;1.30;;;;;;;6.69;100.00;100129.94;5019564;28;20025;-55
2021/11/05 02:40:47;;;;;;;2.25;1.50;;;;;;;6.69;100.00;100130.78;5019174;28;20041;-57
2021/11/05 02:43:13;;;;;;;3.72;1.33;;;;;;;6.66;100.00;100138.34;5014906;28;20869;-58
2021/11/05 02:45:50;;;;;;;3.15;1.30;;;;;;;6.53;100.00;100141.31;5016232;28;20034;-57
2021/11/05 02:48:16;;;;;;;1.67;1.58;;;;;;;6.51;100.00;100148.88;5019360;28;20088;-55
2021/11/05 02:50:43;;;;;;;1.83;1.73;;;;;;;6.67;100.00;100160.44;5015043;28;20049;-56
2021/11/05 02:53:08;;;;;;;2.17;1.60;;;;;;;6.56;100.00;100161.72;5015150;28;20080;-58
2021/11/05 02:55:34;;;;;;;3.05;1.60;;;;;;;6.63;100.00;100158.59;5018236;28;20597;-57
2021/11/05 02:58:00;;;;;;;1.50;1.40;;;;;;;6.50;100.00;100159.84;5016346;28;20085;-58
2021/11/05 03:00:26;;;;;;;3.15;1.77;;;;;;;6.73;100.00;100167.38;5016815;28;20293;-58
2021/11/05 03:02:52;;;;;;;4.88;2.10;;;;;;;6.57;100.00;100171.13;5017379;28;20112;-59
2021/11/05 03:05:18;;;;;;;1.92;1.77;;;;;;;6.74;100.00;100164.00;5015464;28;20486;-58
2021/11/05 03:07:44;;;;;;;2.40;2.00;;;;;;;6.73;100.00;100180.09;5014612;28;20034;-59
2021/11/05 03:10:12;;;;;;;3.85;2.00;;;;;;;6.74;100.00;100176.75;5018349;28;20037;-58
2021/11/05 03:12:38;;;;;;;2.55;2.00;;;;;;;6.76;100.00;100183.63;5018491;28;20044;-60
2021/11/05 03:15:04;;;;;;;2.80;2.08;;;;;;;6.85;100.00;100188.16;5015154;28;20941;-59
2021/11/05 03:17:30;;;;;;;2.83;2.30;;;;;;;6.82;100.00;100195.69;5016907;28;20100;-59
2021/11/05 03:19:55;;;;;;;2.58;2.33;;;;;;;6.94;100.00;100200.31;5016617;28;20034;-58
2021/11/05 03:22:21;;;;;;;2.65;2.30;;;;;;;6.68;100.00;100204.53;5019275;28;20025;-59
2021/11/05 03:24:47;;;;;;;2.15;1.95;;;;;;;6.74;100.00;100208.13;5015619;28;20113;-59
2021/11/05 03:27:12;;;;;;;3.15;2.20;;;;;;;6.60;100.00;100211.91;5017687;28;20099;-59
2021/11/05 03:29:38;;;;;;;3.33;2.38;;;;;;;6.71;100.00;100218.22;5014443;28;20034;-58
2021/11/05 03:32:04;;;;;;;3.70;2.65;;;;;;;6.71;100.00;100213.16;5018094;28;20038;-58
2021/11/05 03:34:30;;;;;;;4.97;2.63;;;;;;;6.71;100.00;100225.88;5014793;28;20033;-59
2021/11/05 03:36:55;;;;;;;3.38;2.97;;;;;;;6.77;100.00;100232.81;5017070;28;20517;-58
2021/11/05 03:39:21;;;;;;;3.17;2.35;;;;;;;6.89;100.00;100231.56;5017943;28;20490;-59
2021/11/05 03:41:47;;;;;;;3.72;2.63;;;;;;;6.64;100.00;100242.59;5016030;28;20438;-57
2021/11/05 03:44:13;;;;;;;3.58;2.97;;;;;;;6.60;100.00;100238.19;5015536;28;20463;-58
2021/11/05 03:46:39;;;;;;;4.72;2.35;;;;;;;6.76;100.00;100243.81;5017140;28;20040;-58
2021/11/05 03:49:06;;;;;;;3.45;2.85;;;;;;;6.83;100.00;100251.69;5014600;28;20022;-58
2021/11/05 03:51:32;;;;;;;3.08;2.75;;;;;;;6.81;100.00;100260.13;5017652;28;20133;-57
2021/11/05 03:53:58;;;;;;;3.47;2.72;;;;;;;6.91;100.00;100253.66;5017334;28;20544;-58
2021/11/05 03:56:25;;;;;;;3.65;2.40;;;;;;;6.91;100.00;100263.81;5015292;28;20172;-58
2021/11/05 03:58:51;;;;;;;3.47;2.85;;;;;;;6.91;100.00;100264.69;5015886;28;20033;-55
2021/11/05 04:01:20;;;;;;;3.70;2.45;;;;;;;6.96;100.00;100267.38;5015806;28;20034;-59
2021/11/05 04:03:48;;;;;;;2.55;2.35;;;;;;;6.64;100.00;100277.34;5014003;28;20697;-58
2021/11/05 04:06:15;;;;;;;3.40;2.92;;;;;;;6.73;100.00;100271.69;5016643;28;20095;-59
2021/11/05 04:08:40;;;;;;;3.03;2.40;;;;;;;6.85;100.00;100274.69;5014142;28;20042;-56
2021/11/05 04:11:06;;;;;;;3.15;2.75;;;;;;;6.83;100.00;100274.59;5016505;28;20097;-61
2021/11/05 04:13:32;;;;;;;4.18;3.05;;;;;;;6.77;100.00;100279.50;5014731;28;20038;-59
2021/11/05 04:15:57;;;;;;;3.20;2.90;;;;;;;6.81;100.00;100285.56;5015599;28;20030;-57
2021/11/05 04:18:23;;;;;;;3.33;2.80;;;;;;;6.74;100.00;100279.38;5016098;28;20516;-60
2021/11/05 04:20:49;;;;;;;4.10;3.28;;;;;;;6.81;100.00;100293.19;5014763;28;20044;-58
2021/11/05 04:23:17;;;;;;;3.20;2.90;;;;;;;6.70;100.00;100300.47;5016516;28;20033;-56
2021/11/05 04:25:43;;;;;;;3.85;2.92;;;;;;;6.79;100.00;100300.75;5013267;28;20530;-64
2021/11/05 04:28:09;;;;;;;3.80;3.40;;;;;;;6.86;100.00;100309.47;5016667;28;20048;-58
2021/11/05 04:30:36;;;;;;;4.22;3.42;;;;;;;6.83;100.00;100307.69;5014144;28;20029;-56
2021/11/05 04:33:02;;;;;;;4.03;3.63;;;;;;;7.00;100.00;100315.03;5013208;28;20037;-59
2021/11/05 04:35:28;;;;;;;4.07;3.35;;;;;;;6.78;100.00;100314.28;5014523;28;20034;-58
2021/11/05 04:37:54;;;;;;;4.10;3.72;;;;;;;6.87;100.00;100317.16;5015962;28;20080;-58
2021/11/05 04:40:20;;;;;;;6.25;4.25;;;;;;;6.96;100.00;100316.63;5010739;28;20845;-60
2021/11/05 04:42:45;;;;;;;5.20;4.68;;;;;;;6.94;100.00;100319.94;5021898;28;20065;-59
2021/11/05 04:45:11;;;;;;;4.75;3.63;;;;;;;6.91;100.00;100324.91;5017216;28;20053;-58
2021/11/05 04:47:37;;;;;;;4.80;4.22;;;;;;;7.01;100.00;100326.94;5013244;28;20121;-58
2021/11/05 04:50:04;;;;;;;5.25;4.60;;;;;;;6.93;100.00;100338.53;5015590;28;20033;-57
2021/11/05 04:52:29;;;;;;;5.13;4.63;;;;;;;7.05;100.00;100336.44;5014047;28;20030;-59
2021/11/05 04:54:55;;;;;;;5.80;5.13;;;;;;;7.15;100.00;100351.19;5014996;28;20833;-57
2021/11/05 04:57:21;;;;;;;5.38;4.88;;;;;;;6.98;100.00;100347.19;5015344;28;20041;-55
2021/11/05 04:59:46;;;;;;;6.10;4.95;;;;;;;6.94;100.00;100353.03;5013897;28;20030;-58
2021/11/05 05:02:12;;;;;;;8.68;5.38;;;;;;;7.13;100.00;100355.38;5016266;28;20841;-58
2021/11/05 05:04:38;;;;;;;6.72;5.25;;;;;;;7.18;100.00;100363.19;5012877;28;20571;-56
2021/11/05 05:07:04;;;;;;;6.90;5.90;;;;;;;6.99;100.00;100361.69;5013397;28;20041;-59
2021/11/05 05:09:29;;;;;;;8.85;5.95;;;;;;;6.96;100.00;100361.56;5015704;28;20033;-58
2021/11/05 05:11:56;;;;;;;6.65;5.75;;;;;;;7.17;100.00;100359.78;5013652;28;20073;-58
2021/11/05 05:14:22;;;;;;;7.70;6.28;;;;;;;7.03;100.00;100366.94;5014868;28;20066;-59
2021/11/05 05:16:47;;;;;;;7.05;5.97;;;;;;;7.06;100.00;100367.03;5014914;28;20406;-59
2021/11/05 05:19:13;;;;;;;9.68;6.82;;;;;;;7.07;100.00;100367.88;5013705;28;20848;-59
2021/11/05 05:21:39;;;;;;;6.95;6.25;;;;;;;7.03;100.00;100369.47;5015932;28;20040;-57
2021/11/05 05:24:04;;;;;;;9.13;7.38;;;;;;;7.05;100.00;100372.94;5012656;28;20032;-58
2021/11/05 05:26:30;;;;;;;10.02;7.72;;;;;;;7.03;100.00;100358.44;5014227;28;20048;-59
2021/11/05 05:28:56;;;;;;;9.63;8.07;;;;;;;6.96;100.00;100366.66;5012797;28;20063;-58
2021/11/05 05:31:22;;;;;;;9.13;8.15;;;;;;;7.02;100.00;100388.09;5015112;28;20032;-60
2021/11/05 05:33:47;;;;;;;11.45;8.38;;;;;;;6.92;100.00;100391.13;5013479;28;20045;-57
2021/11/05 05:36:13;;;;;;;10.85;8.95;;;;;;;7.26;100.00;100400.81;5014663;28;20091;-59
2021/11/05 05:38:39;;;;;;;11.52;9.38;;;;;;;7.21;100.00;100404.91;5014117;28;20053;-58
2021/11/05 05:41:05;;;;;;;12.48;9.80;;;;;;;7.30;100.00;100414.50;5013451;28;20042;-58
2021/11/05 05:43:31;;;;;;;11.95;8.80;;;;;;;7.18;100.00;100409.88;5014891;28;20171;-58
2021/11/05 05:45:57;;;;;;;11.85;10.18;;;;;;;7.17;100.00;100422.56;5012317;28;20433;-58
2021/11/05 05:48:23;;;;;;;12.20;9.23;;;;;;;7.14;100.00;100429.25;5012790;28;20100;-58
2021/11/05 05:50:49;;;;;;;12.07;9.57;;;;;;;7.20;100.00;100426.06;5015461;28;20057;-57
2021/11/05 05:53:15;;;;;;;14.02;10.32;;;;;;;7.06;100.00;100437.44;5013168;28;20392;-58
2021/11/05 05:55:41;;;;;;;12.82;10.40;;;;;;;6.93;100.00;100436.13;5012778;28;20064;-57
2021/11/05 05:58:07;;;;;;;15.02;11.38;;;;;;;7.14;100.00;100441.13;5014399;28;20096;-57
2021/11/05 06:00:35;;;;;;;13.98;10.52;;;;;;;7.14;100.00;100444.53;5016524;28;20026;-57
2021/11/05 06:03:01;;;;;;;12.75;10.40;;;;;;;7.20;100.00;100450.66;5015237;28;20505;-58
2021/11/05 06:05:27;;;;;;;15.63;10.68;;;;;;;6.91;100.00;100450.50;5019264;28;20072;-56
2021/11/05 06:07:52;;;;;;;13.18;10.20;;;;;;;7.01;100.00;100454.22;5016552;28;20034;-58
2021/11/05 06:10:18;;;;;;;14.18;10.88;;;;;;;7.18;100.00;100442.13;5018574;28;20780;-55
2021/11/05 06:12:44;;;;;;;15.05;11.70;;;;;;;7.01;100.00;100446.59;5016949;28;20106;-58
2021/11/05 06:15:10;;;;;;;14.57;11.68;;;;;;;7.20;100.00;100448.13;5017464;28;20030;-57
2021/11/05 06:17:36;;;;;;;16.02;12.10;;;;;;;7.18;100.00;100457.41;5017763;28;20029;-58
2021/11/05 06:20:04;;;;;;;19.92;12.73;;;;;;;7.03;100.00;100468.75;5016839;28;20117;-59
2021/11/05 06:22:30;;;;;;;18.92;13.07;;;;;;;7.25;100.00;100465.28;5019142;28;20064;-59
2021/11/05 06:24:57;;;;;;;16.85;12.70;;;;;;;7.27;100.00;100478.09;5015420;28;20541;-58
2021/11/05 06:27:24;;;;;;;18.63;13.77;;;;;;;7.22;100.00;100480.47;5024341;28;20046;-53
2021/11/05 06:29:50;;;;;;;16.90;12.80;;;;;;;7.48;100.00;100481.38;5026998;28;20029;-55
2021/11/05 06:32:16;;;;;;;17.98;13.00;;;;;;;7.04;100.00;100498.50;5026688;28;20029;-58
2021/11/05 06:34:41;;;;;;;21.52;15.50;;;;;;;7.13;100.00;100505.59;5016920;28;20076;-56
2021/11/05 06:37:07;;;;;;;25.25;17.42;;;;;;;7.24;100.00;100521.25;5017951;28;20025;-55
2021/11/05 06:39:33;;;;;;;24.40;16.05;;;;;;;7.23;100.00;100517.84;5015859;28;20045;-57
2021/11/05 06:41:59;;;;;;;23.70;15.50;;;;;;;7.23;100.00;100520.41;5018612;28;20037;-57
2021/11/05 06:44:25;;;;;;;20.17;13.82;;;;;;;7.51;100.00;100519.69;5015658;28;20116;-57
2021/11/05 06:46:51;;;;;;;20.98;15.07;;;;;;;7.27;100.00;100529.03;5017707;28;20498;-58
2021/11/05 06:49:17;;;;;;;19.48;13.70;;;;;;;7.07;100.00;100529.16;5019556;28;20045;-58
2021/11/05 06:51:43;;;;;;;21.75;14.98;;;;;;;7.11;100.00;100540.31;5017084;28;20036;-59
2021/11/05 06:54:08;;;;;;;19.83;14.02;;;;;;;7.50;100.00;100540.03;5016850;28;20034;-57
2021/11/05 06:56:34;;;;;;;19.55;13.73;;;;;;;7.60;100.00;100544.63;5016164;28;20044;-57
2021/11/05 06:59:01;;;;;;;20.80;14.10;;;;;;;7.42;100.00;100560.13;5017383;28;20100;-54
2021/11/05 07:01:27;;;;;;;21.27;14.52;;;;;;;7.62;100.00;100559.16;5025395;28;20030;-57
2021/11/05 07:03:54;;;;;;;19.70;13.23;;;;;;;7.69;100.00;100570.44;5023802;28;20034;-55
2021/11/05 07:06:20;;;;;;;18.75;14.25;;;;;;;7.34;100.00;100577.69;5025824;28;20091;-57
2021/11/05 07:08:46;;;;;;;20.40;15.05;;;;;;;7.48;100.00;100577.31;5025995;28;20029;-59
2021/11/05 07:11:12;;;;;;;21.27;15.10;;;;;;;7.62;100.00;100591.41;5023612;28;20036;-56
2021/11/05 07:13:38;;;;;;;20.60;14.60;;;;;;;7.55;100.00;100592.91;5024348;28;20525;-52
2021/11/05 07:16:04;;;;;;;22.15;15.18;;;;;;;7.71;100.00;100591.75;5020998;28;20145;-57
2021/11/05 07:18:32;;;;;;;18.92;14.70;;;;;;;7.30;100.00;100601.31;5018504;28;20394;-55
2021/11/05 07:21:00;;;;;;;22.20;13.50;;;;;;;7.58;100.00;100610.84;5014571;28;20030;-56
2021/11/05 07:23:26;;;;;;;18.83;13.27;;;;;;;7.52;100.00;100610.59;5020527;28;20037;-56
2021/11/05 07:25:51;;;;;;;20.40;15.45;;;;;;;7.32;100.00;100620.06;5015349;28;20041;-57
2021/11/05 07:28:18;;;;;;;25.98;14.70;;;;;;;7.68;100.00;100619.69;5015917;28;20055;-57
2021/11/05 07:30:44;;;;;;;21.38;15.23;;;;;;;7.58;100.00;100626.13;5016285;28;20034;-57
2021/11/05 07:33:09;;;;;;;22.30;14.38;;;;;;;7.54;100.00;100624.28;5014916;28;20061;-56
2021/11/05 07:35:35;;;;;;;19.60;15.07;;;;;;;7.54;100.00;100625.97;5017338;28;20402;-56
2021/11/05 07:38:02;;;;;;;19.30;14.13;;;;;;;7.78;100.00;100636.19;5017633;28;20030;-58
2021/11/05 07:40:28;;;;;;;20.83;13.07;;;;;;;7.75;100.00;100652.22;5021086;28;20489;-56
2021/11/05 07:42:53;;;;;;;18.73;13.80;;;;;;;8.01;100.00;100653.16;5020976;28;20261;-56
2021/11/05 07:45:19;;;;;;;19.65;14.13;;;;;;;7.68;100.00;100657.91;5018067;28;20104;-57
2021/11/05 07:47:47;;;;;;;20.23;13.68;;;;;;;7.57;100.00;100667.69;5017851;28;20045;-52
2021/11/05 07:50:16;;;;;;;18.00;13.93;;;;;;;7.79;100.00;100660.84;5020359;28;20100;-57
2021/11/05 07:52:43;;;;;;;17.40;12.30;;;;;;;7.76;100.00;100671.78;5020475;28;20049;-58
2021/11/05 07:55:09;;;;;;;20.45;13.52;;;;;;;7.82;100.00;100676.28;5025083;28;20030;-55
2021/11/05 07:57:35;;;;;;;18.10;13.90;;;;;;;7.81;100.00;100683.06;5020265;28;20486;-58
2021/11/05 08:00:03;;;;;;;18.73;13.73;;;;;;;7.80;100.00;100680.44;5024824;28;20374;-54
2021/11/05 08:02:28;;;;;;;16.58;12.57;;;;;;;7.70;100.00;100683.47;5017642;28;20034;-58
2021/11/05 08:04:54;;;;;;;17.17;12.55;;;;;;;7.66;100.00;100685.88;5022327;28;20036;-58
2021/11/05 08:07:22;;;;;;;18.52;12.43;;;;;;;7.68;100.00;100687.63;5024494;28;20029;-58
2021/11/05 08:09:48;;;;;;;18.63;12.93;;;;;;;7.59;100.00;100696.66;5024235;28;20041;-56
2021/11/05 08:12:14;;;;;;;19.05;12.32;;;;;;;7.46;100.00;100706.34;5024540;28;20498;-58
2021/11/05 08:14:40;;;;;;;19.38;13.15;;;;;;;7.80;100.00;100704.22;5024455;28;20042;-56
2021/11/05 08:17:06;;;;;;;21.30;12.30;;;;;;;8.01;100.00;100701.63;5016807;28;20037;-58
2021/11/05 08:19:32;;;;;;;17.60;12.00;;;;;;;8.01;100.00;100704.16;5020389;28;20457;-57
2021/11/05 08:21:58;;;;;;;17.77;12.90;;;;;;;7.84;100.00;100711.19;5015147;28;20116;-58
2021/11/05 08:24:27;;;;;;;17.13;11.20;;;;;;;8.05;100.00;100716.22;5014449;28;20037;-58
2021/11/05 08:26:53;;;;;;;17.23;12.43;;;;;;;7.97;100.00;100722.72;5013587;28;20066;-59
2021/11/05 08:29:19;;;;;;;17.30;10.60;;;;;;;8.00;100.00;100721.97;5016695;28;20382;-58
2021/11/05 08:31:45;;;;;;;16.10;11.48;;;;;;;8.00;100.00;100725.38;5013316;28;20038;-59
2021/11/05 08:34:11;;;;;;;18.20;11.90;;;;;;;8.10;100.00;100729.13;5015545;28;20036;-58
2021/11/05 08:36:36;;;;;;;16.90;12.68;;;;;;;7.88;100.00;100728.34;5014056;28;20091;-58
2021/11/05 08:39:03;;;;;;;16.88;11.60;;;;;;;7.91;100.00;100736.09;5015059;28;20025;-56
2021/11/05 08:41:29;;;;;;;15.98;11.82;;;;;;;8.07;100.00;100734.97;5015208;28;20470;-58
2021/11/05 08:43:56;;;;;;;17.55;11.85;;;;;;;8.00;100.00;100733.03;5014250;28;20030;-58
2021/11/05 08:46:23;;;;;;;15.95;11.43;;;;;;;7.91;100.00;100738.66;5015971;28;20398;-57
2021/11/05 08:48:55;;;;;;;22.05;12.13;;;;;;;8.22;100.00;100736.34;5012182;28;20033;-58
2021/11/05 08:51:22;;;;;;;18.88;12.20;;;;;;;8.22;100.00;100751.66;5014449;28;20045;-56
2021/11/05 08:53:48;;;;;;;17.27;12.77;;;;;;;8.05;100.00;100753.59;5013857;28;20037;-57
2021/11/05 08:56:15;;;;;;;15.23;10.98;;;;;;;8.17;100.00;100747.25;5014318;28;20022;-58
2021/11/05 08:58:40;;;;;;;18.73;12.30;;;;;;;8.13;100.00;100754.72;5015554;28;20029;-58
2021/11/05 09:01:06;;;;;;;16.77;12.63;;;;;;;8.24;100.00;100756.00;5013264;28;20048;-59
2021/11/05 09:03:32;;;;;;;16.40;11.82;;;;;;;8.38;100.00;100761.63;5016431;28;20040;-54
2021/11/05 09:05:59;;;;;;;17.10;10.93;;;;;;;8.43;100.00;100762.66;5012955;28;20042;-56
2021/11/05 09:08:29;;;;;;;15.88;11.23;;;;;;;8.55;100.00;100777.50;5015472;28;20046;-58
2021/11/05 09:10:56;;;;;;;18.05;12.00;;;;;;;8.33;100.00;100776.75;5014615;28;20033;-58
2021/11/05 09:13:22;;;;;;;18.30;11.57;;;;;;;8.13;100.00;100781.13;5013308;28;20483;-57
2021/11/05 09:15:48;;;;;;;16.50;11.40;;;;;;;8.34;100.00;100773.38;5015640;28;20140;-57
2021/11/05 09:18:13;;;;;;;17.05;11.35;;;;;;;8.61;100.00;100783.72;5012877;28;20065;-57
2021/11/05 09:20:39;;;;;;;16.48;10.98;;;;;;;8.47;100.00;100781.50;5016081;28;20097;-58
2021/11/05 09:23:05;;;;;;;15.32;10.52;;;;;;;8.59;100.00;100787.03;5015411;28;20061;-58
2021/11/05 09:25:32;;;;;;;16.77;11.95;;;;;;;8.66;100.00;100794.97;5014859;28;20041;-59
2021/11/05 09:27:57;;;;;;;19.45;11.40;;;;;;;8.92;100.00;100793.31;5014050;28;20038;-54
2021/11/05 09:30:23;;;;;;;16.25;11.07;;;;;;;8.77;100.00;100799.56;5007644;28;20281;-58
2021/11/05 09:32:52;;;;;;;16.58;11.40;;;;;;;8.44;100.00;100801.81;5016637;28;20048;-58
2021/11/05 09:35:18;;;;;;;17.92;11.18;;;;;;;8.35;100.00;100802.28;5013411;28;20029;-58
2021/11/05 09:37:45;;;;;;;15.43;11.40;;;;;;;8.36;100.00;100810.03;5014795;28;20465;-58
2021/11/05 09:40:15;;;;;;;13.30;10.32;;;;;;;8.81;100.00;100814.19;5019538;28;20116;-56
2021/11/05 09:42:44;;;;;;;14.45;10.57;;;;;;;8.75;100.00;100812.28;5017445;28;20060;-55
2021/11/05 09:45:11;;;;;;;13.95;9.80;;;;;;;8.38;100.00;100810.97;5020342;28;20057;-58
2021/11/05 09:47:39;;;;;;;13.98;9.95;;;;;;;8.50;100.00;100818.19;5020314;28;20045;-56
2021/11/05 09:50:06;;;;;;;14.68;9.70;;;;;;;8.75;100.00;100822.50;5016127;28;20459;-58
2021/11/05 09:52:32;;;;;;;14.90;9.68;;;;;;;8.54;100.00;100811.53;5022207;28;20536;-58
2021/11/05 09:54:59;;;;;;;13.98;9.70;;;;;;;8.80;100.00;100828.63;5017167;28;20038;-57
2021/11/05 09:57:25;;;;;;;13.00;8.68;;;;;;;8.93;100.00;100830.81;5017754;28;20691;-59
2021/11/05 09:59:50;;;;;;;13.20;9.18;;;;;;;8.92;100.00;100843.53;5020355;28;20045;-58
2021/11/05 10:02:16;;;;;;;13.13;9.18;;;;;;;9.12;100.00;100846.75;5022950;28;20146;-58
2021/11/05 10:04:42;;;;;;;17.33;9.18;;;;;;;9.19;100.00;100838.47;5019048;28;20044;-56
2021/11/05 10:07:10;;;;;;;12.05;8.95;;;;;;;9.07;100.00;100849.16;5026102;28;20571;-58
2021/11/05 10:09:43;;;;;;;12.95;9.50;;;;;;;9.14;100.00;100853.63;5019260;28;20033;-56
2021/11/05 10:12:24;;;;;;;14.10;8.70;;;;;;;8.96;100.00;100853.00;5015558;28;20486;-58
2021/11/05 10:14:56;;;;;;;13.48;8.77;;;;;;;9.18;100.00;100862.28;5016069;28;20037;-56
2021/11/05 10:17:22;;;;;;;11.23;8.52;;;;;;;9.13;100.00;100862.13;5017852;28;20510;-58
2021/11/05 10:19:58;;;;;;;13.15;8.15;;;;;;;9.00;100.00;100861.66;5017908;28;20042;-59
2021/11/05 10:22:52;;;;;;;9.98;8.05;;;;;;;8.74;100.00;100864.16;5019253;28;20049;-58
2021/11/05 10:25:30;;;;;;;11.63;7.97;;;;;;;9.18;100.00;100873.38;5018762;28;20041;-58
2021/11/05 10:28:24;;;;;;;12.27;8.02;;;;;;;9.40;100.00;100885.19;5018314;28;20033;-57
2021/11/05 10:31:01;;;;;;;10.35;8.40;;;;;;;9.31;100.00;100878.91;5018878;28;20487;-57
2021/11/05 10:33:37;;;;;;;10.43;7.97;;;;;;;9.24;100.00;100888.03;5016153;28;20033;-57
2021/11/05 10:36:04;;;;;;;;;;;;;;;9.16;100.00;100885.22;5015763;28;20026;-58
2021/11/05 10:38:33;;;;;;;10.57;8.07;;;;;;;9.46;100.00;100887.06;5018389;28;19940;-58
2021/11/05 10:41:01;;;;;;;11.55;8.55;;;;;;;9.42;100.00;100901.44;5016079;28;20486;-57
2021/11/05 10:43:37;;;;;;;13.85;8.85;;;;;;;9.80;100.00;100903.50;5016949;28;20044;-58
2021/11/05 10:46:05;;;;;;;12.48;7.95;;;;;;;9.63;100.00;100908.97;5018268;28;20033;-58
2021/11/05 10:48:35;;;;;;;8.93;7.13;;;;;;;9.39;100.00;100914.13;5017746;28;20040;-57
2021/11/05 10:51:03;;;;;;;11.80;6.75;;;;;;;9.52;100.00;100917.97;5016250;28;20087;-57
2021/11/05 10:53:37;;;;;;;8.68;6.60;;;;;;;9.52;100.00;100925.66;5016565;28;20445;-58
2021/11/05 10:56:07;;;;;;;7.43;6.57;;;;;;;9.53;100.00;100929.06;5018343;28;20033;-56
2021/11/05 10:58:50;;;;;;;7.28;6.45;;;;;;;9.41;100.00;100934.63;5015397;28;20030;-55
2021/11/05 11:01:20;;;;;;;9.50;6.75;;;;;;;9.59;100.00;100940.34;5015020;28;20178;-58
2021/11/05 11:04:00;;;;;;;9.98;6.68;;;;;;;9.66;100.00;100934.63;5014385;28;20038;-56
2021/11/05 11:06:32;;;;;;;8.35;5.10;;;;;;;9.35;100.00;100940.41;5014800;28;20190;-58
2021/11/05 11:09:00;;;;;;;8.02;5.88;;;;;;;9.43;100.00;100936.41;5017965;28;20032;-57
2021/11/05 11:11:35;;;;;;;9.50;6.25;;;;;;;9.56;100.00;100944.47;5015591;28;20022;-56
2021/11/05 11:14:09;;;;;;;7.00;5.15;;;;;;;9.59;100.00;100947.16;5015075;28;20498;-56
2021/11/05 11:16:41;;;;;;;8.98;6.60;;;;;;;9.77;100.00;100949.47;5014816;28;20034;-59
2021/11/05 11:19:09;;;;;;;6.25;5.15;;;;;;;9.64;100.00;100956.72;5016278;28;20477;-57